sensor_id;sensor_type;location;lat;lon;timestamp;pressure;altitude;pressure_sealevel;temperature;humidity
46079;BME280;31820;51.880;-0.518;2022-12-07T00:01:30;100385.97;;;10.34;87.58
46079;BME280;31820;51.880;-0.518;2022-12-07T00:03:58;100391.44;;;10.32;87.51
46079;BME280;31820;51.880;-0.518;2022-12-07T00:06:30;100388.13;;;10.28;87.64
46079;BME280;31820;51.880;-0.518;2022-12-07T00:08:56;100395.97;;;10.31;87.40
46079;BME280;31820;51.880;-0.518;2022-12-07T00:11:22;100389.84;;;10.29;87.43
46079;BME280;31820;51.880;-0.518;2022-12-07T00:14:09;100392.66;;;10.28;87.52
46079;BME280;31820;51.880;-0.518;2022-12-07T00:16:35;100387.63;;;10.23;87.52
46079;BME280;31820;51.880;-0.518;2022-12-07T00:19:02;100390.09;;;10.26;87.43
46079;BME280;31820;51.880;-0.518;2022-12-07T00:21:30;100387.63;;;10.23;87.29
46079;BME280;31820;51.880;-0.518;2022-12-07T00:23:55;100393.75;;;10.25;87.55
46079;BME280;31820;51.880;-0.518;2022-12-07T00:26:30;100395.72;;;10.23;87.57
46079;BME280;31820;51.880;-0.518;2022-12-07T00:28:59;100373.13;;;10.13;87.56
46079;BME280;31820;51.880;-0.518;2022-12-07T00:31:30;100391.28;;;10.22;87.61
46079;BME280;31820;51.880;-0.518;2022-12-07T00:33:58;100389.66;;;10.20;87.42
46079;BME280;31820;51.880;-0.518;2022-12-07T00:36:25;100398.09;;;10.15;87.32
46079;BME280;31820;51.880;-0.518;2022-12-07T00:38:50;100394.44;;;10.16;87.53
46079;BME280;31820;51.880;-0.518;2022-12-07T00:41:21;100391.63;;;10.18;87.48
46079;BME280;31820;51.880;-0.518;2022-12-07T00:43:48;100391.63;;;10.18;87.49
46079;BME280;31820;51.880;-0.518;2022-12-07T00:46:15;100380.00;;;10.17;87.75
46079;BME280;31820;51.880;-0.518;2022-12-07T00:48:41;100381.81;;;10.17;87.58
46079;BME280;31820;51.880;-0.518;2022-12-07T00:51:07;100384.63;;;10.15;87.69
46079;BME280;31820;51.880;-0.518;2022-12-07T00:53:37;100383.78;;;10.14;87.76
46079;BME280;31820;51.880;-0.518;2022-12-07T00:56:07;100380.22;;;10.14;87.58
46079;BME280;31820;51.880;-0.518;2022-12-07T00:58:33;100383.91;;;10.13;87.72
46079;BME280;31820;51.880;-0.518;2022-12-07T01:01:04;100386.59;;;10.13;87.70
46079;BME280;31820;51.880;-0.518;2022-12-07T01:03:29;100382.16;;;10.12;87.57
46079;BME280;31820;51.880;-0.518;2022-12-07T01:05:56;100386.81;;;10.10;87.69
46079;BME280;31820;51.880;-0.518;2022-12-07T01:08:22;100391.13;;;10.12;87.87
46079;BME280;31820;51.880;-0.518;2022-12-07T01:10:48;100391.25;;;10.11;87.60
46079;BME280;31820;51.880;-0.518;2022-12-07T01:13:15;100380.47;;;10.11;87.56
46079;BME280;31820;51.880;-0.518;2022-12-07T01:15:41;100380.47;;;10.11;87.54
46079;BME280;31820;51.880;-0.518;2022-12-07T01:18:07;100381.31;;;10.11;87.45
46079;BME280;31820;51.880;-0.518;2022-12-07T01:20:33;100375.41;;;10.06;87.59
46079;BME280;31820;51.880;-0.518;2022-12-07T01:22:58;100377.88;;;10.09;87.59
46079;BME280;31820;51.880;-0.518;2022-12-07T01:25:24;100369.19;;;10.06;87.53
46079;BME280;31820;51.880;-0.518;2022-12-07T01:27:50;100374.34;;;10.09;87.98
46079;BME280;31820;51.880;-0.518;2022-12-07T01:30:15;100366.72;;;10.03;87.65
46079;BME280;31820;51.880;-0.518;2022-12-07T01:32:41;100376.28;;;10.07;87.91
46079;BME280;31820;51.880;-0.518;2022-12-07T01:35:06;100369.28;;;10.04;87.71
46079;BME280;31820;51.880;-0.518;2022-12-07T01:37:35;100381.53;;;10.08;87.54
46079;BME280;31820;51.880;-0.518;2022-12-07T01:40:02;100380.81;;;10.06;87.64
46079;BME280;31820;51.880;-0.518;2022-12-07T01:42:28;100375.53;;;10.05;87.46
46079;BME280;31820;51.880;-0.518;2022-12-07T01:47:51;100380.06;;;10.04;87.74
46079;BME280;31820;51.880;-0.518;2022-12-07T01:50:19;100383.72;;;10.03;87.65
46079;BME280;31820;51.880;-0.518;2022-12-07T01:52:48;100383.84;;;10.02;87.45
46079;BME280;31820;51.880;-0.518;2022-12-07T01:55:14;100385.69;;;10.01;87.74
46079;BME280;31820;51.880;-0.518;2022-12-07T01:57:47;100383.84;;;10.02;87.58
46079;BME280;31820;51.880;-0.518;2022-12-07T02:00:14;100376.00;;;9.99;87.66
46079;BME280;31820;51.880;-0.518;2022-12-07T02:02:57;100377.72;;;10.00;87.54
46079;BME280;31820;51.880;-0.518;2022-12-07T02:05:26;100383.13;;;10.00;87.92
46079;BME280;31820;51.880;-0.518;2022-12-07T02:07:54;100377.84;;;9.98;87.71
46079;BME280;31820;51.880;-0.518;2022-12-07T02:10:23;100385.03;;;9.98;87.55
46079;BME280;31820;51.880;-0.518;2022-12-07T02:12:53;100386.78;;;9.99;87.17
46079;BME280;31820;51.880;-0.518;2022-12-07T02:15:21;100379.53;;;9.99;87.59
46079;BME280;31820;51.880;-0.518;2022-12-07T02:20:41;100381.63;;;9.95;87.65
46079;BME280;31820;51.880;-0.518;2022-12-07T02:29:11;100373.53;;;9.95;87.60
46079;BME280;31820;51.880;-0.518;2022-12-07T02:31:46;100370.09;;;9.93;87.48
46079;BME280;31820;51.880;-0.518;2022-12-07T02:34:38;100372.03;;;9.91;87.83
46079;BME280;31820;51.880;-0.518;2022-12-07T02:37:12;100374.72;;;9.91;87.55
46079;BME280;31820;51.880;-0.518;2022-12-07T02:39:48;100362.38;;;9.89;87.37
46079;BME280;31820;51.880;-0.518;2022-12-07T02:42:18;100363.09;;;9.91;87.41
46079;BME280;31820;51.880;-0.518;2022-12-07T02:44:46;100363.22;;;9.89;87.48
46079;BME280;31820;51.880;-0.518;2022-12-07T02:47:14;100365.06;;;9.89;87.42
46079;BME280;31820;51.880;-0.518;2022-12-07T02:49:41;100364.22;;;9.88;87.91
46079;BME280;31820;51.880;-0.518;2022-12-07T02:52:07;100357.19;;;9.86;88.00
46079;BME280;31820;51.880;-0.518;2022-12-07T02:54:33;100353.53;;;9.87;87.76
46079;BME280;31820;51.880;-0.518;2022-12-07T03:00:00;100347.16;;;9.88;87.90
46079;BME280;31820;51.880;-0.518;2022-12-07T03:02:45;100341.03;;;9.86;87.59
46079;BME280;31820;51.880;-0.518;2022-12-07T03:16:19;100335.03;;;9.82;87.91
46079;BME280;31820;51.880;-0.518;2022-12-07T03:19:11;100337.72;;;9.82;87.83
46079;BME280;31820;51.880;-0.518;2022-12-07T03:21:46;100335.88;;;9.83;87.55
46079;BME280;31820;51.880;-0.518;2022-12-07T03:24:20;100339.44;;;9.83;87.71
46079;BME280;31820;51.880;-0.518;2022-12-07T03:26:49;100337.72;;;9.82;87.40
46079;BME280;31820;51.880;-0.518;2022-12-07T03:29:22;100332.47;;;9.81;87.43
46079;BME280;31820;51.880;-0.518;2022-12-07T03:31:59;100328.88;;;9.80;87.83
46079;BME280;31820;51.880;-0.518;2022-12-07T03:34:34;100331.91;;;9.75;87.57
46079;BME280;31820;51.880;-0.518;2022-12-07T03:37:12;100334.50;;;9.77;87.78
46079;BME280;31820;51.880;-0.518;2022-12-07T03:39:49;100326.66;;;9.74;87.71
46079;BME280;31820;51.880;-0.518;2022-12-07T03:42:16;100324.72;;;9.76;87.71
46079;BME280;31820;51.880;-0.518;2022-12-07T03:44:42;100331.81;;;9.77;87.47
46079;BME280;31820;51.880;-0.518;2022-12-07T03:50:06;100323.94;;;9.74;87.86
46079;BME280;31820;51.880;-0.518;2022-12-07T03:52:37;100324.94;;;9.73;87.91
46079;BME280;31820;51.880;-0.518;2022-12-07T03:57:42;100317.84;;;9.72;88.03
46079;BME280;31820;51.880;-0.518;2022-12-07T04:00:10;100324.28;;;9.69;87.76
46079;BME280;31820;51.880;-0.518;2022-12-07T04:02:37;100319.91;;;9.68;88.25
46079;BME280;31820;51.880;-0.518;2022-12-07T04:05:03;100320.03;;;9.67;88.08
46079;BME280;31820;51.880;-0.518;2022-12-07T04:07:29;100324.28;;;9.69;88.06
46079;BME280;31820;51.880;-0.518;2022-12-07T04:09:54;100322.94;;;9.64;88.12
46079;BME280;31820;51.880;-0.518;2022-12-07T04:12:21;100326.25;;;9.67;88.27
46079;BME280;31820;51.880;-0.518;2022-12-07T04:14:47;100328.09;;;9.67;88.15
46079;BME280;31820;51.880;-0.518;2022-12-07T04:17:12;100334.34;;;9.67;88.13
46079;BME280;31820;51.880;-0.518;2022-12-07T04:19:38;100335.31;;;9.66;88.33
46079;BME280;31820;51.880;-0.518;2022-12-07T04:22:06;100326.38;;;9.66;88.18
46079;BME280;31820;51.880;-0.518;2022-12-07T04:24:33;100335.31;;;9.66;88.21
46079;BME280;31820;51.880;-0.518;2022-12-07T04:26:59;100335.44;;;9.65;87.85
46079;BME280;31820;51.880;-0.518;2022-12-07T04:29:25;100328.56;;;9.60;88.05
46079;BME280;31820;51.880;-0.518;2022-12-07T04:31:50;100333.81;;;9.62;88.14
46079;BME280;31820;51.880;-0.518;2022-12-07T04:34:17;100329.28;;;9.63;88.24
46079;BME280;31820;51.880;-0.518;2022-12-07T04:36:44;100331.25;;;9.60;88.38
46079;BME280;31820;51.880;-0.518;2022-12-07T04:39:29;100324.00;;;9.61;88.37
46079;BME280;31820;51.880;-0.518;2022-12-07T04:41:56;100326.81;;;9.59;88.44
46079;BME280;31820;51.880;-0.518;2022-12-07T04:44:23;100318.97;;;9.56;88.36
46079;BME280;31820;51.880;-0.518;2022-12-07T04:46:50;100323.28;;;9.59;88.22
46079;BME280;31820;51.880;-0.518;2022-12-07T04:49:16;100326.72;;;9.61;88.57
46079;BME280;31820;51.880;-0.518;2022-12-07T04:51:42;100320.59;;;9.59;88.50
46079;BME280;31820;51.880;-0.518;2022-12-07T04:54:11;100315.19;;;9.59;88.20
46079;BME280;31820;51.880;-0.518;2022-12-07T04:56:38;100319.09;;;9.55;88.24
46079;BME280;31820;51.880;-0.518;2022-12-07T04:59:03;100319.97;;;9.55;88.39
46079;BME280;31820;51.880;-0.518;2022-12-07T05:01:29;100322.44;;;9.58;88.67
46079;BME280;31820;51.880;-0.518;2022-12-07T05:03:55;100320.59;;;9.59;88.32
46079;BME280;31820;51.880;-0.518;2022-12-07T05:06:21;100325.13;;;9.58;88.80
46079;BME280;31820;51.880;-0.518;2022-12-07T05:08:46;100320.59;;;9.59;88.03
46079;BME280;31820;51.880;-0.518;2022-12-07T05:11:12;100316.03;;;9.59;88.40
46079;BME280;31820;51.880;-0.518;2022-12-07T05:13:57;100325.13;;;9.58;88.14
46079;BME280;31820;51.880;-0.518;2022-12-07T05:16:23;100321.66;;;9.56;88.69
46079;BME280;31820;51.880;-0.518;2022-12-07T05:18:48;100305.09;;;9.50;88.19
46079;BME280;31820;51.880;-0.518;2022-12-07T05:21:14;100318.97;;;9.56;88.37
46079;BME280;31820;51.880;-0.518;2022-12-07T05:23:39;100317.16;;;9.57;88.76
46079;BME280;31820;51.880;-0.518;2022-12-07T05:26:05;100308.19;;;9.56;88.13
46079;BME280;31820;51.880;-0.518;2022-12-07T05:28:30;100302.94;;;9.55;88.22
46079;BME280;31820;51.880;-0.518;2022-12-07T05:30:56;100308.44;;;9.53;88.52
46079;BME280;31820;51.880;-0.518;2022-12-07T05:33:21;100309.31;;;9.54;88.77
46079;BME280;31820;51.880;-0.518;2022-12-07T05:35:47;100312.00;;;9.54;88.31
46079;BME280;31820;51.880;-0.518;2022-12-07T05:38:12;100296.06;;;9.51;88.57
46079;BME280;31820;51.880;-0.518;2022-12-07T05:40:38;100295.72;;;9.55;88.49
46079;BME280;31820;51.880;-0.518;2022-12-07T05:43:03;100296.69;;;9.54;88.66
46079;BME280;31820;51.880;-0.518;2022-12-07T05:45:29;100286.28;;;9.50;88.48
46079;BME280;31820;51.880;-0.518;2022-12-07T05:47:54;100294.97;;;9.53;88.24
46079;BME280;31820;51.880;-0.518;2022-12-07T05:50:20;100292.63;;;9.49;88.43
46079;BME280;31820;51.880;-0.518;2022-12-07T05:52:45;100293.28;;;9.52;88.56
46079;BME280;31820;51.880;-0.518;2022-12-07T05:55:11;100291.53;;;9.51;88.72
46079;BME280;31820;51.880;-0.518;2022-12-07T05:57:36;100279.16;;;9.49;88.27
46079;BME280;31820;51.880;-0.518;2022-12-07T06:00:03;100289.69;;;9.52;88.64
46079;BME280;31820;51.880;-0.518;2022-12-07T06:02:28;100285.41;;;9.49;88.74
46079;BME280;31820;51.880;-0.518;2022-12-07T06:04:54;100280.88;;;9.50;88.38
46079;BME280;31820;51.880;-0.518;2022-12-07T06:07:19;100288.97;;;9.50;88.35
46079;BME280;31820;51.880;-0.518;2022-12-07T06:09:45;100287.22;;;9.49;88.56
46079;BME280;31820;51.880;-0.518;2022-12-07T06:12:11;100274.75;;;9.48;88.40
46079;BME280;31820;51.880;-0.518;2022-12-07T06:14:55;100272.91;;;9.48;88.63
46079;BME280;31820;51.880;-0.518;2022-12-07T06:17:21;100274.75;;;9.48;88.55
46079;BME280;31820;51.880;-0.518;2022-12-07T06:19:46;100281.00;;;9.48;88.40
46079;BME280;31820;51.880;-0.518;2022-12-07T06:22:12;100280.16;;;9.48;88.73
46079;BME280;31820;51.880;-0.518;2022-12-07T06:24:38;100278.75;;;9.42;88.63
46079;BME280;31820;51.880;-0.518;2022-12-07T06:27:05;100285.13;;;9.41;88.65
46079;BME280;31820;51.880;-0.518;2022-12-07T06:29:32;100294.69;;;9.45;88.84
46079;BME280;31820;51.880;-0.518;2022-12-07T06:31:57;100294.78;;;9.44;88.68
46079;BME280;31820;51.880;-0.518;2022-12-07T06:34:25;100293.94;;;9.43;88.69
46079;BME280;31820;51.880;-0.518;2022-12-07T06:36:51;100286.94;;;9.40;88.44
46079;BME280;31820;51.880;-0.518;2022-12-07T06:39:20;100286.84;;;9.42;88.49
46079;BME280;31820;51.880;-0.518;2022-12-07T06:41:45;100286.84;;;9.42;88.25
46079;BME280;31820;51.880;-0.518;2022-12-07T06:44:11;100288.78;;;9.40;88.88
46079;BME280;31820;51.880;-0.518;2022-12-07T06:46:37;100304.72;;;9.43;88.46
46079;BME280;31820;51.880;-0.518;2022-12-07T06:49:03;100292.22;;;9.42;88.92
46079;BME280;31820;51.880;-0.518;2022-12-07T06:51:30;100282.66;;;9.38;88.62
46079;BME280;31820;51.880;-0.518;2022-12-07T06:53:55;100288.78;;;9.40;88.26
46079;BME280;31820;51.880;-0.518;2022-12-07T06:56:21;100287.06;;;9.39;88.78
46079;BME280;31820;51.880;-0.518;2022-12-07T06:58:48;100282.56;;;9.39;88.44
46079;BME280;31820;51.880;-0.518;2022-12-07T07:01:17;100286.22;;;9.38;88.41
46079;BME280;31820;51.880;-0.518;2022-12-07T07:03:43;100286.31;;;9.37;88.31
46079;BME280;31820;51.880;-0.518;2022-12-07T07:06:10;100284.47;;;9.37;88.60
46079;BME280;31820;51.880;-0.518;2022-12-07T07:08:37;100285.59;;;9.35;88.64
46079;BME280;31820;51.880;-0.518;2022-12-07T07:11:03;100289.13;;;9.35;88.78
46079;BME280;31820;51.880;-0.518;2022-12-07T07:13:29;100287.28;;;9.36;88.85
46079;BME280;31820;51.880;-0.518;2022-12-07T07:15:55;100292.66;;;9.36;88.38
46079;BME280;31820;51.880;-0.518;2022-12-07T07:18:21;100290.09;;;9.34;88.65
46079;BME280;31820;51.880;-0.518;2022-12-07T07:20:46;100287.28;;;9.36;88.94
46079;BME280;31820;51.880;-0.518;2022-12-07T07:23:12;100274.41;;;9.28;88.36
46079;BME280;31820;51.880;-0.518;2022-12-07T07:25:38;100281.91;;;9.36;88.72
46079;BME280;31820;51.880;-0.518;2022-12-07T07:28:04;100283.75;;;9.35;88.74
46079;BME280;31820;51.880;-0.518;2022-12-07T07:30:30;100288.50;;;9.32;89.05
46079;BME280;31820;51.880;-0.518;2022-12-07T07:32:59;100285.16;;;9.28;88.75
46079;BME280;31820;51.880;-0.518;2022-12-07T07:35:26;100282.84;;;9.23;88.90
46079;BME280;31820;51.880;-0.518;2022-12-07T07:37:52;100295.81;;;9.30;88.86
46079;BME280;31820;51.880;-0.518;2022-12-07T07:40:18;100293.22;;;9.28;89.11
46079;BME280;31820;51.880;-0.518;2022-12-07T07:42:43;100299.59;;;9.27;89.16
46079;BME280;31820;51.880;-0.518;2022-12-07T07:45:09;100301.31;;;9.28;89.04
46079;BME280;31820;51.880;-0.518;2022-12-07T07:47:35;100285.63;;;9.22;89.04
46079;BME280;31820;51.880;-0.518;2022-12-07T07:50:01;100300.56;;;9.26;89.16
46079;BME280;31820;51.880;-0.518;2022-12-07T07:52:26;100301.06;;;9.31;88.64
46079;BME280;31820;51.880;-0.518;2022-12-07T07:54:52;100294.84;;;9.31;88.41
46079;BME280;31820;51.880;-0.518;2022-12-07T07:57:17;100295.81;;;9.30;88.35
46079;BME280;31820;51.880;-0.518;2022-12-07T07:59:43;100304.31;;;9.36;88.44
46079;BME280;31820;51.880;-0.518;2022-12-07T08:02:14;100301.75;;;9.35;87.95
46079;BME280;31820;51.880;-0.518;2022-12-07T08:04:40;100301.75;;;9.35;88.70
46079;BME280;31820;51.880;-0.518;2022-12-07T08:07:06;100307.22;;;9.33;88.31
46079;BME280;31820;51.880;-0.518;2022-12-07T08:09:31;100302.91;;;9.31;88.55
46079;BME280;31820;51.880;-0.518;2022-12-07T08:11:57;100302.81;;;9.32;88.18
46079;BME280;31820;51.880;-0.518;2022-12-07T08:14:24;100308.31;;;9.31;88.69
46079;BME280;31820;51.880;-0.518;2022-12-07T08:16:50;100294.34;;;9.26;88.42
46079;BME280;31820;51.880;-0.518;2022-12-07T08:19:15;100309.25;;;9.30;88.62
46079;BME280;31820;51.880;-0.518;2022-12-07T08:21:41;100305.72;;;9.29;88.37
46079;BME280;31820;51.880;-0.518;2022-12-07T08:24:06;100312.84;;;9.30;88.80
46079;BME280;31820;51.880;-0.518;2022-12-07T08:26:32;100309.53;;;9.27;88.12
46079;BME280;31820;51.880;-0.518;2022-12-07T08:28:57;100319.28;;;9.28;88.90
46079;BME280;31820;51.880;-0.518;2022-12-07T08:31:23;100309.25;;;9.30;88.24
46079;BME280;31820;51.880;-0.518;2022-12-07T08:33:48;100309.53;;;9.27;88.33
46079;BME280;31820;51.880;-0.518;2022-12-07T08:36:15;100304.75;;;9.30;88.25
46079;BME280;31820;51.880;-0.518;2022-12-07T08:38:41;100299.44;;;9.17;88.53
46079;BME280;31820;51.880;-0.518;2022-12-07T08:41:07;100313.91;;;9.28;88.77
46079;BME280;31820;51.880;-0.518;2022-12-07T08:43:34;100310.25;;;9.29;88.75
46079;BME280;31820;51.880;-0.518;2022-12-07T08:49:04;100302.06;;;9.30;88.31
46079;BME280;31820;51.880;-0.518;2022-12-07T08:51:31;100298.50;;;9.30;88.43
46079;BME280;31820;51.880;-0.518;2022-12-07T08:53:58;100301.19;;;9.30;88.22
46079;BME280;31820;51.880;-0.518;2022-12-07T08:56:26;100293.13;;;9.30;88.22
46079;BME280;31820;51.880;-0.518;2022-12-07T08:58:52;100295.06;;;9.28;88.47
46079;BME280;31820;51.880;-0.518;2022-12-07T09:01:18;100291.41;;;9.29;87.93
46079;BME280;31820;51.880;-0.518;2022-12-07T09:03:43;100287.00;;;9.28;88.15
46079;BME280;31820;51.880;-0.518;2022-12-07T09:06:09;100280.78;;;9.27;88.69
46079;BME280;31820;51.880;-0.518;2022-12-07T09:08:39;100282.59;;;9.27;88.70
46079;BME280;31820;51.880;-0.518;2022-12-07T09:11:06;100291.66;;;9.26;88.28
46079;BME280;31820;51.880;-0.518;2022-12-07T09:13:31;100295.06;;;9.28;88.27
46079;BME280;31820;51.880;-0.518;2022-12-07T09:15:57;100287.00;;;9.28;88.07
46079;BME280;31820;51.880;-0.518;2022-12-07T09:18:22;100287.63;;;9.31;87.93
46079;BME280;31820;51.880;-0.518;2022-12-07T09:20:49;100289.47;;;9.31;88.08
46079;BME280;31820;51.880;-0.518;2022-12-07T09:23:15;100281.63;;;9.28;88.14
46079;BME280;31820;51.880;-0.518;2022-12-07T09:25:40;100275.28;;;9.29;88.08
46079;BME280;31820;51.880;-0.518;2022-12-07T09:28:06;100284.09;;;9.31;88.34
46079;BME280;31820;51.880;-0.518;2022-12-07T09:30:31;100282.34;;;9.30;87.75
46079;BME280;31820;51.880;-0.518;2022-12-07T09:32:57;100275.28;;;9.29;88.37
46079;BME280;31820;51.880;-0.518;2022-12-07T09:35:23;100265.47;;;9.28;88.57
46079;BME280;31820;51.880;-0.518;2022-12-07T09:37:48;100272.59;;;9.29;88.44
46079;BME280;31820;51.880;-0.518;2022-12-07T09:40:14;100270.84;;;9.28;88.16
46079;BME280;31820;51.880;-0.518;2022-12-07T09:43:00;100273.31;;;9.31;88.09
46079;BME280;31820;51.880;-0.518;2022-12-07T09:45:36;100257.84;;;9.21;87.55
46079;BME280;31820;51.880;-0.518;2022-12-07T09:48:03;100279.22;;;9.36;87.32
46079;BME280;31820;51.880;-0.518;2022-12-07T09:50:29;100282.13;;;9.33;87.79
46079;BME280;31820;51.880;-0.518;2022-12-07T09:53:06;100280.66;;;9.29;87.82
46079;BME280;31820;51.880;-0.518;2022-12-07T09:55:33;100287.63;;;9.31;87.61
46079;BME280;31820;51.880;-0.518;2022-12-07T09:58:01;100289.47;;;9.31;87.82
46079;BME280;31820;51.880;-0.518;2022-12-07T10:00:26;100289.47;;;9.31;87.85
46079;BME280;31820;51.880;-0.518;2022-12-07T10:03:00;100296.59;;;9.32;87.47
46079;BME280;31820;51.880;-0.518;2022-12-07T10:05:39;100294.00;;;9.30;87.76
46079;BME280;31820;51.880;-0.518;2022-12-07T10:08:12;100281.41;;;9.31;87.86
46079;BME280;31820;51.880;-0.518;2022-12-07T10:10:38;100287.41;;;9.34;87.59
46079;BME280;31820;51.880;-0.518;2022-12-07T10:13:17;100289.47;;;9.31;87.24
46079;BME280;31820;51.880;-0.518;2022-12-07T10:16:02;100292.91;;;9.33;87.83
46079;BME280;31820;51.880;-0.518;2022-12-07T10:21:16;100284.94;;;9.31;87.69
46079;BME280;31820;51.880;-0.518;2022-12-07T10:23:43;100275.91;;;9.32;87.24
46079;BME280;31820;51.880;-0.518;2022-12-07T10:29:21;100280.44;;;9.32;87.32
46079;BME280;31820;51.880;-0.518;2022-12-07T10:31:57;100277.75;;;9.32;87.58
46079;BME280;31820;51.880;-0.518;2022-12-07T10:34:31;100272.47;;;9.30;87.14
46079;BME280;31820;51.880;-0.518;2022-12-07T10:39:46;100264.41;;;9.30;87.67
46079;BME280;31820;51.880;-0.518;2022-12-07T10:42:28;100269.78;;;9.30;87.44
46079;BME280;31820;51.880;-0.518;2022-12-07T10:45:15;100261.81;;;9.29;87.64
46079;BME280;31820;51.880;-0.518;2022-12-07T10:47:51;100247.38;;;9.30;87.74
46079;BME280;31820;51.880;-0.518;2022-12-07T10:50:18;100244.69;;;9.30;87.65
46079;BME280;31820;51.880;-0.518;2022-12-07T11:01:24;100234.91;;;9.29;87.42
46079;BME280;31820;51.880;-0.518;2022-12-07T11:04:18;100217.78;;;9.30;87.62
46079;BME280;31820;51.880;-0.518;2022-12-07T11:06:54;100223.16;;;9.30;87.01
46079;BME280;31820;51.880;-0.518;2022-12-07T11:10:04;100222.19;;;9.31;87.65
46079;BME280;31820;51.880;-0.518;2022-12-07T11:15:07;100209.56;;;9.31;86.88
46079;BME280;31820;51.880;-0.518;2022-12-07T11:17:48;100202.50;;;9.30;87.28
46079;BME280;31820;51.880;-0.518;2022-12-07T11:29:01;100194.09;;;9.35;86.66
46079;BME280;31820;51.880;-0.518;2022-12-07T11:37:01;100199.84;;;9.41;87.59
46079;BME280;31820;51.880;-0.518;2022-12-07T11:39:35;100194.63;;;9.51;87.51
46079;BME280;31820;51.880;-0.518;2022-12-07T11:42:22;100197.47;;;9.61;87.89
46079;BME280;31820;51.880;-0.518;2022-12-07T11:44:56;100198.63;;;9.70;87.75
46079;BME280;31820;51.880;-0.518;2022-12-07T11:47:54;100198.53;;;9.83;87.74
46079;BME280;31820;51.880;-0.518;2022-12-07T11:50:38;100182.97;;;9.98;87.64
46079;BME280;31820;51.880;-0.518;2022-12-07T11:53:30;100183.28;;;10.06;87.71
46079;BME280;31820;51.880;-0.518;2022-12-07T11:56:17;100172.50;;;10.17;87.85
46079;BME280;31820;51.880;-0.518;2022-12-07T12:06:37;100150.69;;;10.54;87.88
46079;BME280;31820;51.880;-0.518;2022-12-07T12:14:46;100136.19;;;10.78;87.82
46079;BME280;31820;51.880;-0.518;2022-12-07T12:17:43;100142.31;;;10.91;87.59
46079;BME280;31820;51.880;-0.518;2022-12-07T12:25:50;100133.41;;;11.12;87.38
46079;BME280;31820;51.880;-0.518;2022-12-07T12:28:30;100131.16;;;11.17;87.16
46079;BME280;31820;51.880;-0.518;2022-12-07T12:33:48;100130.59;;;11.34;87.32
46079;BME280;31820;51.880;-0.518;2022-12-07T12:49:32;100112.22;;;11.70;86.75
46079;BME280;31820;51.880;-0.518;2022-12-07T12:52:00;100114.66;;;11.73;86.49
46079;BME280;31820;51.880;-0.518;2022-12-07T12:54:33;100111.56;;;11.78;86.63
46079;BME280;31820;51.880;-0.518;2022-12-07T12:59:32;100100.06;;;11.86;86.84
46079;BME280;31820;51.880;-0.518;2022-12-07T13:13:00;100086.66;;;11.96;86.27
46079;BME280;31820;51.880;-0.518;2022-12-07T13:15:49;100094.63;;;11.97;86.32
46079;BME280;31820;51.880;-0.518;2022-12-07T13:18:35;100087.50;;;11.96;85.76
46079;BME280;31820;51.880;-0.518;2022-12-07T13:26:36;100088.13;;;11.88;85.33
46079;BME280;31820;51.880;-0.518;2022-12-07T13:29:17;100075.75;;;11.86;85.36
46079;BME280;31820;51.880;-0.518;2022-12-07T13:31:46;100073.31;;;11.83;85.10
46079;BME280;31820;51.880;-0.518;2022-12-07T13:36:52;100059.34;;;11.77;84.76
46079;BME280;31820;51.880;-0.518;2022-12-07T13:39:21;100056.34;;;11.71;84.93
46079;BME280;31820;51.880;-0.518;2022-12-07T13:41:55;100055.09;;;11.75;84.27
46079;BME280;31820;51.880;-0.518;2022-12-07T13:44:23;100056.22;;;11.72;84.41
46079;BME280;31820;51.880;-0.518;2022-12-07T13:49:31;100038.94;;;11.64;84.00
46079;BME280;31820;51.880;-0.518;2022-12-07T13:52:28;100044.34;;;11.64;84.20
46079;BME280;31820;51.880;-0.518;2022-12-07T13:57:32;100037.66;;;11.58;83.74
46079;BME280;31820;51.880;-0.518;2022-12-07T14:00:04;100030.78;;;11.54;83.74
46079;BME280;31820;51.880;-0.518;2022-12-07T14:02:32;100028.22;;;11.52;83.46
46079;BME280;31820;51.880;-0.518;2022-12-07T14:05:28;100023.09;;;11.49;83.76
46079;BME280;31820;51.880;-0.518;2022-12-07T14:07:54;100020.78;;;11.45;83.59
46079;BME280;31820;51.880;-0.518;2022-12-07T14:10:36;100015.66;;;11.41;83.56
46079;BME280;31820;51.880;-0.518;2022-12-07T14:13:21;100010.53;;;11.38;83.55
46079;BME280;31820;51.880;-0.518;2022-12-07T14:15:51;100009.09;;;11.34;83.34
46079;BME280;31820;51.880;-0.518;2022-12-07T14:18:26;100004.94;;;11.30;83.27
46079;BME280;31820;51.880;-0.518;2022-12-07T14:21:06;99994.53;;;11.26;83.66
46079;BME280;31820;51.880;-0.518;2022-12-07T14:23:39;99993.13;;;11.21;83.69
46079;BME280;31820;51.880;-0.518;2022-12-07T14:28:39;99985.41;;;11.17;83.38
46079;BME280;31820;51.880;-0.518;2022-12-07T14:31:12;99988.25;;;11.15;83.27
46079;BME280;31820;51.880;-0.518;2022-12-07T14:33:38;99984.22;;;11.10;83.31
46079;BME280;31820;51.880;-0.518;2022-12-07T14:36:04;99991.34;;;11.11;83.35
46079;BME280;31820;51.880;-0.518;2022-12-07T14:38:30;99986.19;;;11.08;83.25
46079;BME280;31820;51.880;-0.518;2022-12-07T14:40:56;99983.06;;;11.02;83.38
46079;BME280;31820;51.880;-0.518;2022-12-07T14:43:44;99986.72;;;11.01;83.47
46079;BME280;31820;51.880;-0.518;2022-12-07T14:46:10;99981.00;;;10.95;83.41
46079;BME280;31820;51.880;-0.518;2022-12-07T14:48:35;99981.59;;;10.98;83.31
46079;BME280;31820;51.880;-0.518;2022-12-07T14:51:01;99981.84;;;10.95;83.44
46079;BME280;31820;51.880;-0.518;2022-12-07T14:53:35;99983.00;;;10.93;83.21
46079;BME280;31820;51.880;-0.518;2022-12-07T14:56:02;99965.72;;;10.84;83.35
46079;BME280;31820;51.880;-0.518;2022-12-07T14:58:30;99977.97;;;10.88;83.44
46079;BME280;31820;51.880;-0.518;2022-12-07T15:00:56;99970.53;;;10.80;83.57
46079;BME280;31820;51.880;-0.518;2022-12-07T15:03:21;99982.75;;;10.84;83.37
46079;BME280;31820;51.880;-0.518;2022-12-07T15:05:47;99977.50;;;10.83;83.37
46079;BME280;31820;51.880;-0.518;2022-12-07T15:08:13;99988.41;;;10.81;83.50
46079;BME280;31820;51.880;-0.518;2022-12-07T15:10:39;99978.75;;;10.79;83.59
46079;BME280;31820;51.880;-0.518;2022-12-07T15:13:06;99968.94;;;10.78;83.69